createdAt,value
2018-11-03T00:03:22.534Z,6.20
2018-11-03T00:05:59.113Z,6.20
2018-11-03T00:08:36.884Z,6.20
2018-11-03T00:11:10.048Z,6.10
2018-11-03T00:13:58.691Z,6.10
2018-11-03T00:16:33.818Z,6.10
2018-11-03T00:22:37.449Z,6.10
2018-11-03T00:25:23.614Z,6.00
2018-11-03T00:27:59.925Z,5.90
2018-11-03T00:30:35.805Z,5.80
2018-11-03T00:33:22.292Z,5.60
2018-11-03T00:36:06.944Z,5.50
2018-11-03T00:38:51.161Z,5.40
2018-11-03T00:41:30.364Z,5.30
2018-11-03T00:44:01.691Z,5.20
2018-11-03T00:46:37.699Z,5.10
2018-11-03T00:49:10.251Z,5.00
2018-11-03T00:51:42.345Z,4.90
2018-11-03T00:54:31.529Z,4.80
2018-11-03T00:57:02.027Z,4.80
2018-11-03T00:59:33.770Z,4.80
2018-11-03T01:02:05.816Z,4.80
2018-11-03T01:04:39.521Z,4.70
2018-11-03T01:07:11.935Z,4.70
2018-11-03T01:09:59.650Z,4.60
2018-11-03T01:13:00.719Z,4.50
2018-11-03T01:15:48.516Z,4.50
2018-11-03T01:18:28.294Z,4.50
2018-11-03T01:21:03.145Z,4.50
2018-11-03T01:26:50.413Z,4.50
2018-11-03T01:29:32.788Z,4.30
2018-11-03T01:32:08.803Z,4.20
2018-11-03T01:37:59.475Z,4.00
2018-11-03T01:40:29.110Z,3.90
2018-11-03T01:43:00.034Z,3.80
2018-11-03T01:45:29.365Z,3.80
2018-11-03T01:47:58.622Z,3.90
2018-11-03T01:50:31.739Z,3.90
2018-11-03T01:53:01.068Z,3.80
2018-11-03T01:55:31.132Z,3.70
2018-11-03T01:58:00.548Z,3.70
2018-11-03T02:00:30.038Z,3.70
2018-11-03T02:03:00.284Z,3.60
2018-11-03T02:05:29.694Z,3.60
2018-11-03T02:08:00.935Z,3.60
2018-11-03T02:10:30.082Z,3.60
2018-11-03T02:13:00.270Z,3.70
2018-11-03T02:15:29.669Z,3.60
2018-11-03T02:17:58.993Z,3.60
2018-11-03T02:20:28.994Z,3.60
2018-11-03T02:22:59.219Z,3.50
2018-11-03T02:25:29.455Z,3.50
2018-11-03T02:27:58.867Z,3.50
2018-11-03T02:30:28.455Z,3.40
2018-11-03T02:32:59.834Z,3.40
2018-11-03T02:35:29.086Z,3.40
2018-11-03T02:37:58.999Z,3.40
2018-11-03T02:40:28.996Z,3.50
2018-11-03T02:42:58.923Z,3.60
2018-11-03T02:45:28.806Z,3.60
2018-11-03T02:47:58.393Z,3.70
2018-11-03T02:50:27.886Z,3.80
2018-11-03T02:53:01.399Z,3.90
2018-11-03T02:55:30.629Z,3.90
2018-11-03T02:57:59.899Z,3.80
2018-11-03T03:00:30.703Z,3.80
2018-11-03T03:03:00.943Z,3.60
2018-11-03T03:05:30.224Z,3.60
2018-11-03T03:07:59.603Z,3.50
2018-11-03T03:10:29.803Z,3.40
2018-11-03T03:12:59.309Z,3.40
2018-11-03T03:15:29.419Z,3.40
2018-11-03T03:17:58.834Z,3.50
2018-11-03T03:20:28.489Z,3.60
2018-11-03T03:22:59.376Z,3.70
2018-11-03T03:25:29.452Z,3.70
2018-11-03T03:27:59.845Z,3.70
2018-11-03T03:30:29.024Z,3.70
2018-11-03T03:32:58.684Z,3.60
2018-11-03T03:35:28.879Z,3.50
2018-11-03T03:37:59.152Z,3.40
2018-11-03T03:40:29.100Z,3.40
2018-11-03T03:42:58.861Z,3.40
2018-11-03T03:45:28.411Z,3.40
2018-11-03T03:47:57.842Z,3.30
2018-11-03T03:50:28.453Z,3.30
2018-11-03T03:52:58.125Z,3.30
2018-11-03T03:55:27.369Z,3.30
2018-11-03T03:57:56.621Z,3.40
2018-11-03T04:00:28.183Z,3.50
2018-11-03T04:03:01.305Z,3.50
2018-11-03T04:05:30.372Z,3.60
2018-11-03T04:08:00.220Z,3.60
2018-11-03T04:10:29.543Z,3.60
2018-11-03T04:12:58.842Z,3.50
2018-11-03T04:15:28.184Z,3.50
2018-11-03T04:17:57.521Z,3.50
2018-11-03T04:20:28.029Z,3.50
2018-11-03T04:22:58.644Z,3.50
2018-11-03T04:25:28.104Z,3.40
2018-11-03T04:27:57.883Z,3.30
2018-11-03T04:30:28.645Z,3.20
2018-11-03T04:33:00.241Z,3.20
2018-11-03T04:35:29.568Z,3.10
2018-11-03T04:37:58.858Z,3.00
2018-11-03T04:40:28.334Z,3.10
2018-11-03T04:42:59.869Z,3.10
2018-11-03T04:45:30.086Z,3.10
2018-11-03T04:48:00.020Z,3.10
2018-11-03T04:50:29.356Z,3.00
2018-11-03T04:52:59.416Z,3.00
2018-11-03T04:55:29.964Z,2.90
2018-11-03T04:57:59.307Z,2.90
2018-11-03T05:00:31.753Z,2.90
2018-11-03T05:03:01.500Z,2.90
2018-11-03T05:05:30.845Z,2.80
2018-11-03T05:08:00.010Z,2.70
2018-11-03T05:10:29.428Z,2.70
2018-11-03T05:12:59.530Z,2.70
2018-11-03T05:15:29.000Z,2.70
2018-11-03T05:17:58.270Z,2.70
2018-11-03T05:20:28.760Z,2.70
2018-11-03T05:22:59.064Z,2.80
2018-11-03T05:25:28.906Z,2.90
2018-11-03T05:27:58.301Z,3.00
2018-11-03T05:30:29.834Z,3.10
2018-11-03T05:33:00.508Z,3.10
2018-11-03T05:35:29.816Z,3.00
2018-11-03T05:38:00.084Z,3.00
2018-11-03T05:40:29.579Z,3.00
2018-11-03T05:43:00.779Z,3.00
2018-11-03T05:45:30.040Z,3.00
2018-11-03T05:47:59.994Z,3.10
2018-11-03T05:50:32.871Z,3.10
2018-11-03T05:53:02.596Z,3.20
2018-11-03T05:55:33.262Z,3.20
2018-11-03T05:58:02.785Z,3.10
2018-11-03T06:00:32.349Z,3.10
2018-11-03T06:03:03.130Z,3.10
2018-11-03T06:05:32.474Z,3.10
2018-11-03T06:08:02.222Z,3.10
2018-11-03T06:10:32.193Z,3.00
2018-11-03T06:13:02.900Z,3.00
2018-11-03T06:15:32.460Z,3.00
2018-11-03T06:18:02.502Z,3.10
2018-11-03T06:20:31.762Z,3.10
2018-11-03T06:23:01.209Z,3.10
2018-11-03T06:25:30.273Z,3.10
2018-11-03T06:27:59.859Z,3.10
2018-11-03T06:30:29.278Z,3.10
2018-11-03T06:32:58.796Z,3.00
2018-11-03T06:35:29.612Z,3.00
2018-11-03T06:38:00.394Z,2.90
2018-11-03T06:40:30.422Z,3.00
2018-11-03T06:46:01.251Z,2.90
2018-11-03T06:48:33.610Z,2.90
2018-11-03T06:51:03.351Z,2.90
2018-11-03T06:53:33.147Z,2.80
2018-11-03T06:56:02.431Z,2.80
2018-11-03T06:58:32.904Z,2.80
2018-11-03T07:01:03.314Z,2.80
2018-11-03T07:03:33.048Z,2.80
2018-11-03T07:09:02.495Z,2.80
2018-11-03T07:11:44.289Z,2.80
2018-11-03T07:14:21.636Z,2.80
2018-11-03T07:17:01.794Z,2.80
2018-11-03T07:19:32.383Z,2.90
2018-11-03T07:22:02.863Z,2.90
2018-11-03T07:24:46.195Z,3.00
2018-11-03T07:31:04.016Z,3.20
2018-11-03T07:38:37.886Z,3.40
2018-11-03T07:49:33.716Z,3.60
2018-11-03T08:06:32.091Z,4.00
2018-11-03T08:09:01.779Z,4.30
2018-11-03T08:11:33.374Z,4.30
2018-11-03T08:14:02.958Z,4.30
2018-11-03T08:16:32.609Z,4.40
2018-11-03T08:19:03.964Z,4.40
2018-11-03T08:24:29.260Z,4.50
2018-11-03T08:27:00.298Z,4.60
2018-11-03T08:29:30.459Z,4.60
2018-11-03T08:32:03.227Z,4.60
2018-11-03T08:37:39.533Z,4.60
2018-11-03T08:40:14.917Z,4.70
2018-11-03T08:42:56.047Z,4.70
2018-11-03T08:45:26.427Z,4.70
2018-11-03T08:48:16.160Z,4.80
2018-11-03T08:50:47.465Z,4.80
2018-11-03T08:53:16.359Z,4.90
2018-11-03T08:55:54.221Z,5.00
2018-11-03T08:58:26.973Z,5.10
2018-11-03T09:00:55.719Z,5.20
2018-11-03T09:03:59.023Z,5.40
2018-11-03T09:06:33.744Z,5.50
2018-11-03T09:09:07.979Z,5.50
2018-11-03T09:11:57.151Z,5.60
2018-11-03T09:14:35.045Z,5.60
2018-11-03T09:17:05.824Z,5.70
2018-11-03T09:23:39.411Z,5.80
2018-11-03T09:41:50.648Z,5.80
2018-11-03T09:44:38.137Z,5.90
2018-11-03T09:47:16.692Z,6.00
2018-11-03T09:52:42.848Z,6.00
2018-11-03T09:55:18.062Z,6.10
2018-11-03T09:57:59.717Z,6.10
2018-11-03T10:00:30.043Z,6.10
2018-11-03T10:03:00.600Z,6.20
2018-11-03T10:05:30.154Z,6.30
2018-11-03T10:08:28.514Z,6.30
2018-11-03T10:11:06.034Z,6.30
2018-11-03T10:13:38.391Z,6.30
2018-11-03T10:16:29.829Z,6.30
2018-11-03T10:22:04.172Z,6.50
2018-11-03T10:26:54.101Z,6.50
2018-11-03T10:29:35.740Z,6.60
2018-11-03T10:32:06.368Z,6.70
2018-11-03T10:34:36.034Z,6.80
2018-11-03T10:37:08.589Z,6.80
2018-11-03T10:39:52.760Z,6.90
2018-11-03T10:42:24.743Z,6.90
2018-11-03T10:45:00.313Z,7.00
2018-11-03T10:47:29.994Z,7.00
2018-11-03T10:50:05.160Z,7.10
2018-11-03T10:52:34.699Z,7.10
2018-11-03T10:55:09.674Z,7.20
2018-11-03T10:57:43.429Z,7.30
2018-11-03T11:00:21.544Z,7.30
2018-11-03T11:02:56.471Z,7.40
2018-11-03T11:05:35.535Z,7.40
2018-11-03T11:08:16.224Z,7.40
2018-11-03T11:10:50.877Z,7.50
2018-11-03T11:13:26.457Z,7.50
2018-11-03T11:15:57.690Z,7.60
2018-11-03T11:18:31.726Z,7.60
2018-11-03T11:21:03.215Z,7.70
2018-11-03T11:23:33.842Z,7.70
2018-11-03T11:26:04.052Z,7.70
2018-11-03T11:28:34.619Z,7.80
2018-11-03T11:31:04.857Z,7.80
2018-11-03T11:33:34.941Z,7.90
2018-11-03T11:36:04.812Z,8.00
2018-11-03T11:38:34.673Z,8.00
2018-11-03T11:41:06.032Z,8.00
2018-11-03T11:43:35.543Z,8.10
2018-11-03T11:46:14.163Z,8.10
2018-11-03T11:48:53.782Z,8.10
2018-11-03T11:51:28.936Z,8.20
2018-11-03T11:53:58.434Z,8.10
2018-11-03T11:56:28.031Z,8.20
2018-11-03T11:58:57.447Z,8.20
2018-11-03T12:01:26.961Z,8.20
2018-11-03T12:03:56.729Z,8.30
2018-11-03T12:06:26.435Z,8.30
2018-11-03T12:08:57.524Z,8.30
2018-11-03T12:11:30.215Z,8.30
2018-11-03T12:14:00.647Z,8.30
2018-11-03T12:16:32.992Z,8.30
2018-11-03T12:19:05.403Z,8.40
2018-11-03T12:21:37.479Z,8.40
2018-11-03T12:24:07.107Z,8.40
2018-11-03T12:26:36.743Z,8.40
2018-11-03T12:29:08.918Z,8.40
2018-11-03T12:31:38.403Z,8.40
2018-11-03T12:34:07.437Z,8.30
2018-11-03T12:36:39.512Z,8.30
2018-11-03T12:39:09.436Z,8.30
2018-11-03T12:41:39.107Z,8.40
2018-11-03T12:44:08.480Z,8.40
2018-11-03T12:46:38.132Z,8.40
2018-11-03T12:49:16.025Z,8.50
2018-11-03T12:51:49.524Z,8.50
2018-11-03T12:54:19.192Z,8.60
2018-11-03T12:56:49.182Z,8.70
2018-11-03T12:59:21.003Z,8.70
2018-11-03T13:01:50.875Z,8.80
2018-11-03T13:04:20.082Z,8.80
2018-11-03T13:06:52.714Z,8.80
2018-11-03T13:09:24.757Z,8.80
2018-11-03T13:11:54.081Z,8.80
2018-11-03T13:14:43.799Z,8.80
2018-11-03T13:17:14.496Z,8.90
2018-11-03T13:19:44.864Z,9.00
2018-11-03T13:22:14.321Z,9.00
2018-11-03T13:24:44.681Z,9.00
2018-11-03T13:27:15.530Z,9.10
2018-11-03T13:29:45.208Z,9.00
2018-11-03T13:35:33.109Z,9.00
2018-11-03T13:38:03.614Z,9.00
2018-11-03T13:40:33.343Z,9.00
2018-11-03T13:43:02.949Z,9.00
2018-11-03T13:45:32.273Z,9.00
2018-11-03T13:48:02.047Z,9.00
2018-11-03T13:50:37.924Z,9.00
2018-11-03T13:53:10.914Z,9.00
2018-11-03T13:55:40.289Z,8.90
2018-11-03T13:58:09.728Z,8.90
2018-11-03T14:00:39.249Z,8.80
2018-11-03T14:03:09.197Z,8.80
2018-11-03T14:05:41.141Z,8.80
2018-11-03T14:08:10.458Z,8.80
2018-11-03T14:10:40.243Z,8.80
2018-11-03T14:13:09.834Z,8.80
2018-11-03T14:15:39.070Z,8.80
2018-11-03T14:18:08.494Z,8.80
2018-11-03T14:20:37.872Z,8.70
2018-11-03T14:23:08.980Z,8.70
2018-11-03T14:25:39.712Z,8.70
2018-11-03T14:28:10.736Z,8.60
2018-11-03T14:30:41.648Z,8.50
2018-11-03T14:33:16.193Z,8.50
2018-11-03T14:35:46.985Z,8.50
2018-11-03T14:38:18.665Z,8.40
2018-11-03T14:40:48.253Z,8.40
2018-11-03T14:43:26.184Z,8.30
2018-11-03T14:45:55.680Z,8.30
2018-11-03T14:48:27.852Z,8.30
2018-11-03T14:50:59.268Z,8.30
2018-11-03T14:53:30.437Z,8.30
2018-11-03T14:58:38.091Z,8.20
2018-11-03T15:01:07.708Z,8.10
2018-11-03T15:03:36.972Z,8.10
2018-11-03T15:06:11.459Z,8.00
2018-11-03T15:08:46.825Z,8.00
2018-11-03T15:11:22.010Z,8.00
2018-11-03T15:13:52.341Z,8.00
2018-11-03T15:16:24.636Z,7.90
2018-11-03T15:18:54.235Z,7.90
2018-11-03T15:21:24.153Z,7.80
2018-11-03T15:23:54.597Z,7.70
2018-11-03T15:26:23.989Z,7.70
2018-11-03T15:28:53.872Z,7.60
2018-11-03T15:31:24.225Z,7.60
2018-11-03T15:33:56.887Z,7.50
2018-11-03T15:36:31.599Z,7.40
2018-11-03T15:39:03.978Z,7.40
2018-11-03T15:41:34.618Z,7.30
2018-11-03T15:44:11.499Z,7.20
2018-11-03T15:46:45.419Z,7.20
2018-11-03T15:49:15.243Z,7.10
2018-11-03T15:51:46.347Z,7.10
2018-11-03T15:54:15.717Z,7.00
2018-11-03T15:56:45.064Z,7.00
2018-11-03T15:59:16.210Z,6.90
2018-11-03T16:01:46.137Z,6.80
2018-11-03T16:04:17.782Z,6.80
2018-11-03T16:06:48.570Z,6.70
2018-11-03T16:09:21.012Z,6.70
2018-11-03T16:11:50.291Z,6.60
2018-11-03T16:14:20.172Z,6.60
2018-11-03T16:16:50.807Z,6.50
2018-11-03T16:19:22.034Z,6.50
2018-11-03T16:21:53.032Z,6.40
2018-11-03T16:24:24.137Z,6.40
2018-11-03T16:29:37.106Z,6.30
2018-11-03T16:32:09.717Z,6.30
2018-11-03T16:34:39.232Z,6.30
2018-11-03T16:40:08.221Z,6.20
2018-11-03T16:42:56.374Z,6.20
2018-11-03T16:45:28.238Z,6.20
2018-11-03T16:48:00.194Z,6.20
2018-11-03T16:50:30.862Z,6.20
2018-11-03T16:59:20.255Z,6.10
2018-11-03T17:03:23.850Z,6.00
2018-11-03T17:08:47.371Z,5.90
2018-11-03T17:11:18.238Z,5.90
2018-11-03T17:13:51.157Z,5.80
2018-11-03T17:16:27.459Z,5.80
2018-11-03T17:18:59.390Z,5.80
2018-11-03T17:21:30.492Z,5.70
2018-11-03T17:24:00.801Z,5.70
2018-11-03T17:26:31.207Z,5.80
2018-11-03T17:29:01.923Z,5.80
2018-11-03T17:31:32.247Z,5.70
2018-11-03T17:37:35.434Z,5.70
2018-11-03T17:40:05.617Z,5.60
2018-11-03T17:42:35.057Z,5.60
2018-11-03T17:45:05.817Z,5.50
2018-11-03T17:47:42.050Z,5.40
2018-11-03T17:50:22.453Z,5.40
2018-11-03T17:52:52.346Z,5.30
2018-11-03T17:55:21.834Z,5.30
2018-11-03T17:57:51.257Z,5.40
2018-11-03T18:00:20.669Z,5.40
2018-11-03T18:02:49.996Z,5.40
2018-11-03T18:05:19.394Z,5.30
2018-11-03T18:07:48.581Z,5.30
2018-11-03T18:10:19.212Z,5.20
2018-11-03T18:12:49.629Z,5.20
2018-11-03T18:15:18.792Z,5.10
2018-11-03T18:17:48.139Z,5.10
2018-11-03T18:20:17.357Z,5.00
2018-11-03T18:22:46.467Z,4.90
2018-11-03T18:25:15.851Z,4.80
2018-11-03T18:27:48.443Z,4.90
2018-11-03T18:30:21.533Z,4.90
2018-11-03T18:32:51.695Z,4.80
2018-11-03T18:35:21.062Z,4.80
2018-11-03T18:37:50.417Z,4.70
2018-11-03T18:40:19.747Z,4.70
2018-11-03T18:42:49.876Z,4.70
2018-11-03T18:45:19.519Z,4.70
2018-11-03T18:47:49.567Z,4.70
2018-11-03T18:50:19.012Z,4.70
2018-11-03T18:52:48.435Z,4.70
2018-11-03T18:55:17.752Z,4.70
2018-11-03T18:57:47.028Z,4.60
2018-11-03T19:00:16.354Z,4.60
2018-11-03T19:02:45.862Z,4.60
2018-11-03T19:05:17.293Z,4.60
2018-11-03T19:07:46.601Z,4.60
2018-11-03T19:10:16.202Z,4.50
2018-11-03T19:12:49.425Z,4.50
2018-11-03T19:15:18.539Z,4.40
2018-11-03T19:17:48.010Z,4.40
2018-11-03T19:20:18.709Z,4.30
2018-11-03T19:22:59.907Z,4.20
2018-11-03T19:25:30.248Z,4.10
2018-11-03T19:27:59.359Z,4.10
2018-11-03T19:30:28.627Z,3.90
2018-11-03T19:35:39.103Z,3.90
2018-11-03T19:38:08.582Z,3.90
2018-11-03T19:40:38.067Z,3.90
2018-11-03T19:43:08.143Z,3.80
2018-11-03T19:45:39.331Z,3.80
2018-11-03T19:48:09.544Z,3.80
2018-11-03T19:50:39.663Z,3.80
2018-11-03T19:53:08.964Z,3.80
2018-11-03T19:55:38.356Z,3.80
2018-11-03T19:58:10.136Z,3.80
2018-11-03T20:00:43.468Z,3.70
2018-11-03T20:03:16.235Z,3.70
2018-11-03T20:05:45.480Z,3.70
2018-11-03T20:08:14.729Z,3.70
2018-11-03T20:10:44.211Z,3.60
2018-11-03T20:13:13.476Z,3.70
2018-11-03T20:15:43.045Z,3.70
2018-11-03T20:18:12.411Z,3.60
2018-11-03T20:22:04.478Z,3.60
2018-11-03T20:24:36.537Z,3.60
2018-11-03T20:27:09.693Z,3.60
2018-11-03T20:29:53.251Z,3.70
2018-11-03T20:32:23.378Z,3.60
2018-11-03T20:34:53.185Z,3.70
2018-11-03T20:37:24.361Z,3.70
2018-11-03T20:39:55.744Z,3.60
2018-11-03T20:42:25.630Z,3.50
2018-11-03T20:44:55.271Z,3.50
2018-11-03T20:47:24.402Z,3.50
2018-11-03T20:49:53.970Z,3.40
2018-11-03T20:52:23.504Z,3.40
2018-11-03T20:54:53.831Z,3.40
2018-11-03T20:57:23.081Z,3.50
2018-11-03T20:59:52.703Z,3.50
2018-11-03T21:02:22.077Z,3.50
2018-11-03T21:04:51.593Z,3.40
2018-11-03T21:07:22.140Z,3.40
2018-11-03T21:09:52.366Z,3.40
2018-11-03T21:12:22.050Z,3.40
2018-11-03T21:14:51.761Z,3.30
2018-11-03T21:17:21.198Z,3.30
2018-11-03T21:19:50.839Z,3.30
2018-11-03T21:22:20.044Z,3.30
2018-11-03T21:24:50.157Z,3.30
2018-11-03T21:27:19.974Z,3.30
2018-11-03T21:29:49.341Z,3.30
2018-11-03T21:32:18.709Z,3.30
2018-11-03T21:34:55.619Z,3.30
2018-11-03T21:37:27.559Z,3.30
2018-11-03T21:39:56.808Z,3.30
2018-11-03T21:42:28.104Z,3.30
2018-11-03T21:44:57.626Z,3.30
2018-11-03T21:47:26.964Z,3.30
2018-11-03T21:49:56.352Z,3.30
2018-11-03T21:52:26.189Z,3.20
2018-11-03T21:54:57.155Z,3.20
2018-11-03T21:57:26.590Z,3.20
2018-11-03T21:59:55.937Z,3.20
2018-11-03T22:02:29.845Z,3.20
2018-11-03T22:08:30.836Z,3.20
2018-11-03T22:11:32.601Z,3.20
2018-11-03T22:14:15.162Z,3.10
2018-11-03T22:16:44.854Z,3.10
2018-11-03T22:19:15.193Z,3.10
2018-11-03T22:21:44.648Z,3.00
2018-11-03T22:24:14.702Z,3.10
2018-11-03T22:26:48.039Z,3.10
2018-11-03T22:29:17.378Z,3.00
2018-11-03T22:31:47.507Z,3.00
2018-11-03T22:34:21.398Z,3.00
2018-11-03T22:36:54.385Z,3.00
2018-11-03T22:39:23.504Z,3.00
2018-11-03T22:41:52.953Z,3.00
2018-11-03T22:44:22.204Z,3.00
2018-11-03T22:46:52.529Z,3.00
2018-11-03T22:49:23.308Z,3.00
2018-11-03T22:51:52.876Z,3.00
2018-11-03T22:54:23.063Z,3.00
2018-11-03T22:56:52.341Z,3.00
2018-11-03T22:59:21.497Z,2.90
2018-11-03T23:01:50.955Z,2.90
2018-11-03T23:04:20.827Z,2.90
2018-11-03T23:06:50.111Z,2.90
2018-11-03T23:09:20.334Z,2.90
2018-11-03T23:11:50.132Z,3.00
2018-11-03T23:14:20.684Z,3.00
2018-11-03T23:16:50.054Z,3.00
2018-11-03T23:19:19.382Z,3.10
2018-11-03T23:21:49.580Z,3.00
2018-11-03T23:24:18.910Z,3.00
2018-11-03T23:26:49.390Z,3.00
2018-11-03T23:29:18.787Z,2.90
2018-11-03T23:31:48.699Z,2.90
2018-11-03T23:34:18.077Z,2.90
2018-11-03T23:36:48.405Z,2.80
2018-11-03T23:39:17.880Z,2.90
2018-11-03T23:41:47.171Z,2.90
2018-11-03T23:44:16.645Z,2.90
2018-11-03T23:46:45.854Z,2.90
2018-11-03T23:49:15.219Z,2.90
2018-11-03T23:51:45.210Z,2.90
2018-11-03T23:54:14.428Z,2.90
2018-11-03T23:56:43.737Z,2.90
2018-11-03T23:59:13.095Z,3.00
